createdAt,value
2019-01-23T00:00:31.683Z,100175.81
2019-01-23T00:03:00.218Z,100178.34
2019-01-23T00:05:28.752Z,100180.52
2019-01-23T00:07:57.240Z,100177.42
2019-01-23T00:10:25.888Z,100159.56
2019-01-23T00:12:54.396Z,100155.59
2019-01-23T00:15:22.878Z,100163.39
2019-01-23T00:17:51.363Z,100163.30
2019-01-23T00:20:19.832Z,100154.56
2019-01-23T00:22:48.323Z,100157.16
2019-01-23T00:25:16.794Z,100155.38
2019-01-23T00:27:45.292Z,100152.24
2019-01-23T00:30:15.502Z,100150.06
2019-01-23T00:32:44.014Z,100145.31
2019-01-23T00:35:12.632Z,100144.74
2019-01-23T00:37:41.130Z,100149.96
2019-01-23T00:40:12.773Z,100140.81
2019-01-23T00:42:41.297Z,100139.52
2019-01-23T00:45:12.798Z,100145.56
2019-01-23T00:47:41.290Z,100145.13
2019-01-23T00:50:11.501Z,100140.25
2019-01-23T00:52:39.993Z,100150.74
2019-01-23T00:55:14.346Z,100134.64
2019-01-23T00:57:42.836Z,100134.20
2019-01-23T01:00:19.629Z,100138.55
2019-01-23T01:02:48.359Z,100128.53
2019-01-23T01:05:17.964Z,100122.35
2019-01-23T01:07:46.546Z,100127.19
2019-01-23T01:10:19.811Z,100122.83
2019-01-23T01:12:48.733Z,100116.30
2019-01-23T01:15:17.732Z,100110.64
2019-01-23T01:17:46.308Z,100118.91
2019-01-23T01:20:16.604Z,100111.12
2019-01-23T01:22:45.319Z,100116.69
2019-01-23T01:25:18.445Z,100111.47
2019-01-23T01:27:46.940Z,100101.46
2019-01-23T01:30:17.964Z,100109.77
2019-01-23T01:32:46.421Z,100107.20
2019-01-23T01:35:14.993Z,100112.81
2019-01-23T01:37:43.531Z,100110.16
2019-01-23T01:40:14.368Z,100109.72
2019-01-23T01:42:42.831Z,100109.28
2019-01-23T01:45:12.859Z,100107.50
2019-01-23T01:47:41.396Z,100106.20
2019-01-23T01:50:16.262Z,100102.81
2019-01-23T01:52:44.730Z,100100.19
2019-01-23T01:55:13.290Z,100097.09
2019-01-23T01:57:41.850Z,100088.84
2019-01-23T02:00:16.101Z,100090.14
2019-01-23T02:02:44.640Z,100092.79
2019-01-23T02:05:13.277Z,100084.96
2019-01-23T02:07:41.803Z,100085.39
2019-01-23T02:10:13.439Z,100076.59
2019-01-23T02:12:41.916Z,100076.25
2019-01-23T02:15:12.548Z,100074.91
2019-01-23T02:17:41.040Z,100070.12
2019-01-23T02:20:12.803Z,100074.81
2019-01-23T02:22:41.339Z,100067.89
2019-01-23T02:25:10.167Z,100066.19
2019-01-23T02:27:38.972Z,100071.85
2019-01-23T02:30:10.534Z,100069.72
2019-01-23T02:32:38.992Z,100070.59
2019-01-23T02:35:09.008Z,100076.25
2019-01-23T02:37:37.481Z,100073.20
2019-01-23T02:40:09.034Z,100067.55
2019-01-23T02:42:37.494Z,100067.59
2019-01-23T02:45:07.662Z,100065.84
2019-01-23T02:47:36.124Z,100068.02
2019-01-23T02:50:07.649Z,100064.94
2019-01-23T02:52:36.187Z,100063.59
2019-01-23T02:55:06.958Z,100069.72
2019-01-23T02:57:35.506Z,100063.20
2019-01-23T03:00:07.234Z,100064.06
2019-01-23T03:02:35.742Z,100063.19
2019-01-23T03:05:06.653Z,100064.59
2019-01-23T03:07:35.130Z,100057.58
2019-01-23T03:10:05.151Z,100055.80
2019-01-23T03:12:33.637Z,100057.06
2019-01-23T03:15:02.174Z,100058.36
2019-01-23T03:17:30.617Z,100055.80
2019-01-23T03:19:59.109Z,100054.92
2019-01-23T03:22:27.611Z,100046.66
2019-01-23T03:24:56.111Z,100043.64
2019-01-23T03:27:24.572Z,100046.70
2019-01-23T03:29:53.078Z,100051.53
2019-01-23T03:32:21.624Z,100047.17
2019-01-23T03:34:50.131Z,100048.39
2019-01-23T03:37:18.608Z,100041.82
2019-01-23T03:39:47.104Z,100050.52
2019-01-23T03:42:15.596Z,100042.34
2019-01-23T03:44:44.095Z,100044.48
2019-01-23T03:47:12.579Z,100050.57
2019-01-23T03:49:41.066Z,100038.38
2019-01-23T03:52:09.540Z,100051.00
2019-01-23T03:54:38.034Z,100040.52
2019-01-23T03:57:06.519Z,100046.30
2019-01-23T03:59:35.024Z,100051.56
2019-01-23T04:02:03.495Z,100045.47
2019-01-23T04:04:31.987Z,100046.73
2019-01-23T04:07:00.466Z,100048.35
2019-01-23T04:09:28.951Z,100040.43
2019-01-23T04:11:57.432Z,100046.61
2019-01-23T04:14:25.935Z,100050.96
2019-01-23T04:16:54.408Z,100054.88
2019-01-23T04:19:22.898Z,100050.44
2019-01-23T04:21:51.372Z,100045.25
2019-01-23T04:24:19.865Z,100053.53
2019-01-23T04:26:48.332Z,100057.97
2019-01-23T04:29:16.820Z,100054.41
2019-01-23T04:31:45.292Z,100058.70
2019-01-23T04:34:13.788Z,100054.79
2019-01-23T04:36:42.261Z,100057.39
2019-01-23T04:39:10.750Z,100055.70
2019-01-23T04:41:39.223Z,100054.05
2019-01-23T04:44:07.808Z,100057.00
2019-01-23T04:46:36.864Z,100051.22
2019-01-23T04:49:05.363Z,100049.09
2019-01-23T04:51:47.745Z,100050.05
2019-01-23T04:54:16.518Z,100054.17
2019-01-23T04:56:44.977Z,100058.91
2019-01-23T04:59:13.454Z,100057.13
2019-01-23T05:01:41.954Z,100046.30
2019-01-23T05:04:10.558Z,100047.64
2019-01-23T05:06:39.049Z,100038.84
2019-01-23T05:09:08.096Z,100036.33
2019-01-23T05:11:36.615Z,100031.59
2019-01-23T05:14:05.701Z,100028.97
2019-01-23T05:16:34.210Z,100029.41
2019-01-23T05:19:02.684Z,100028.54
2019-01-23T05:21:31.265Z,100030.28
2019-01-23T05:23:59.749Z,100035.08
2019-01-23T05:26:28.248Z,100039.91
2019-01-23T05:28:56.729Z,100039.47
2019-01-23T05:31:25.285Z,100041.55
2019-01-23T05:33:53.753Z,100039.81
2019-01-23T05:36:22.328Z,100041.93
2019-01-23T05:38:50.802Z,100039.72
2019-01-23T05:41:19.298Z,100030.97
2019-01-23T05:43:47.804Z,100040.48
2019-01-23T05:46:16.309Z,100045.56
2019-01-23T05:48:44.777Z,100047.40
2019-01-23T05:51:13.349Z,100048.22
2019-01-23T05:53:41.853Z,100039.03
2019-01-23T05:56:10.365Z,100039.57
2019-01-23T05:58:38.842Z,100040.33
2019-01-23T06:01:08.330Z,100029.90
2019-01-23T06:03:36.805Z,100029.17
2019-01-23T06:06:05.302Z,100019.45
2019-01-23T06:08:33.764Z,100026.76
2019-01-23T06:11:02.265Z,100030.66
2019-01-23T06:13:30.742Z,100026.91
2019-01-23T06:15:59.242Z,100029.95
2019-01-23T06:18:27.717Z,100028.94
2019-01-23T06:20:56.215Z,100022.94
2019-01-23T06:23:24.686Z,100025.88
2019-01-23T06:25:53.182Z,100028.97
2019-01-23T06:28:21.653Z,100024.20
2019-01-23T06:30:50.145Z,100030.66
2019-01-23T06:33:18.667Z,100035.02
2019-01-23T06:35:47.163Z,100035.38
2019-01-23T06:38:15.648Z,100034.47
2019-01-23T06:40:44.165Z,100044.46
2019-01-23T06:43:12.653Z,100045.77
2019-01-23T06:45:41.144Z,100040.50
2019-01-23T06:48:09.618Z,100038.27
2019-01-23T06:50:38.117Z,100038.32
2019-01-23T06:53:06.600Z,100035.38
2019-01-23T06:55:35.104Z,100040.98
2019-01-23T06:58:03.572Z,100047.98
2019-01-23T07:00:32.075Z,100049.30
2019-01-23T07:03:00.556Z,100050.22
2019-01-23T07:05:29.223Z,100045.00
2019-01-23T07:07:57.729Z,100046.63
2019-01-23T07:10:26.550Z,100047.98
2019-01-23T07:12:55.155Z,100040.98
2019-01-23T07:15:23.706Z,100042.72
2019-01-23T07:17:52.201Z,100044.13
2019-01-23T07:20:27.148Z,100039.32
2019-01-23T07:22:55.666Z,100035.93
2019-01-23T07:25:24.620Z,100047.72
2019-01-23T07:27:53.112Z,100042.50
2019-01-23T07:30:29.772Z,100044.26
2019-01-23T07:32:58.267Z,100038.22
2019-01-23T07:35:26.738Z,100037.44
2019-01-23T07:37:55.331Z,100041.70
2019-01-23T07:40:23.809Z,100038.21
2019-01-23T07:42:52.324Z,100042.17
2019-01-23T07:45:23.628Z,100033.00
2019-01-23T07:47:52.113Z,100033.53
2019-01-23T07:50:20.591Z,100038.74
2019-01-23T07:52:49.219Z,100040.53
2019-01-23T07:55:19.440Z,100035.80
2019-01-23T07:57:47.948Z,100039.77
2019-01-23T08:00:19.131Z,100037.63
2019-01-23T08:02:47.780Z,100041.50
2019-01-23T08:05:19.703Z,100031.15
2019-01-23T08:07:48.555Z,100020.31
2019-01-23T08:10:19.092Z,100026.94
2019-01-23T08:12:47.775Z,100025.72
2019-01-23T08:15:22.265Z,100026.34
2019-01-23T08:17:50.785Z,100023.89
2019-01-23T08:20:21.935Z,100032.12
2019-01-23T08:22:50.517Z,100027.73
2019-01-23T08:25:19.167Z,100029.98
2019-01-23T08:27:47.668Z,100024.50
2019-01-23T08:30:18.989Z,100018.02
2019-01-23T08:32:47.488Z,100021.08
2019-01-23T08:35:16.800Z,100008.12
2019-01-23T08:37:45.329Z,100009.43
2019-01-23T08:40:15.841Z,100006.45
2019-01-23T08:42:44.615Z,100006.89
2019-01-23T08:45:14.431Z,100012.15
2019-01-23T08:47:43.111Z,100001.69
2019-01-23T08:50:20.501Z,100000.89
2019-01-23T08:52:48.993Z,100004.38
2019-01-23T08:55:17.463Z,99999.42
2019-01-23T08:57:46.128Z,99999.56
2019-01-23T09:00:17.001Z,99999.87
2019-01-23T09:02:45.510Z,100015.09
2019-01-23T09:05:14.522Z,100007.56
2019-01-23T09:07:43.256Z,100009.78
2019-01-23T09:10:20.735Z,100013.73
2019-01-23T09:12:49.301Z,100011.98
2019-01-23T09:15:18.321Z,100011.48
2019-01-23T09:17:46.819Z,100008.47
2019-01-23T09:20:19.702Z,100009.38
2019-01-23T09:22:48.375Z,100018.17
2019-01-23T09:25:19.657Z,100018.98
2019-01-23T09:27:48.419Z,100022.94
2019-01-23T09:30:31.706Z,100023.84
2019-01-23T09:33:24.186Z,100016.89
2019-01-23T09:36:27.601Z,100015.18
2019-01-23T09:39:21.915Z,100013.97
2019-01-23T09:42:08.689Z,100014.93
2019-01-23T09:45:01.428Z,100015.88
2019-01-23T09:47:41.907Z,100008.05
2019-01-23T09:50:16.072Z,100004.13
2019-01-23T09:52:53.695Z,100000.25
2019-01-23T09:55:22.348Z,100009.89
2019-01-23T09:57:51.887Z,100007.20
2019-01-23T10:00:23.573Z,100002.08
2019-01-23T10:02:52.146Z,100001.19
2019-01-23T10:05:20.792Z,100006.48
2019-01-23T10:07:49.305Z,99996.92
2019-01-23T10:10:19.906Z,99997.38
2019-01-23T10:12:48.411Z,99996.91
2019-01-23T10:15:22.594Z,100000.01
2019-01-23T10:17:51.085Z,99996.91
2019-01-23T10:20:19.563Z,99994.30
2019-01-23T10:22:48.047Z,99995.63
2019-01-23T10:25:16.952Z,99999.99
2019-01-23T10:27:45.552Z,100006.52
2019-01-23T10:30:15.487Z,100007.42
2019-01-23T10:32:44.099Z,99993.01
2019-01-23T10:35:18.411Z,100001.32
2019-01-23T10:37:46.867Z,99995.63
2019-01-23T10:40:17.401Z,100010.47
2019-01-23T10:42:46.028Z,100007.83
2019-01-23T10:45:15.613Z,99991.70
2019-01-23T10:47:44.717Z,99996.08
2019-01-23T10:50:20.463Z,99988.64
2019-01-23T10:52:48.942Z,99994.75
2019-01-23T10:55:17.452Z,100000.86
2019-01-23T10:57:46.068Z,100002.58
2019-01-23T11:00:22.411Z,100006.50
2019-01-23T11:02:50.939Z,100004.33
2019-01-23T11:05:24.378Z,100003.50
2019-01-23T11:07:53.020Z,100006.55
2019-01-23T11:10:25.342Z,100006.08
2019-01-23T11:12:53.822Z,99999.58
2019-01-23T11:15:22.714Z,100007.44
2019-01-23T11:17:51.270Z,100002.19
2019-01-23T11:20:21.019Z,100005.23
2019-01-23T11:22:50.797Z,100001.77
2019-01-23T11:25:19.429Z,99999.13
2019-01-23T11:27:48.494Z,99993.45
2019-01-23T11:30:25.662Z,100000.88
2019-01-23T11:32:54.145Z,100006.10
2019-01-23T11:35:23.751Z,100006.11
2019-01-23T11:37:52.415Z,100009.59
2019-01-23T11:40:26.548Z,100015.28
2019-01-23T11:42:55.306Z,100009.18
2019-01-23T11:45:23.881Z,100013.96
2019-01-23T11:47:52.505Z,100020.07
2019-01-23T11:50:23.084Z,100027.06
2019-01-23T11:52:52.439Z,100019.20
2019-01-23T11:55:21.026Z,100017.45
2019-01-23T11:57:49.506Z,100016.97
2019-01-23T12:00:27.306Z,100015.20
2019-01-23T12:02:55.785Z,100016.95
2019-01-23T12:05:25.152Z,100019.56
2019-01-23T12:07:53.770Z,100021.27
2019-01-23T12:10:24.028Z,100021.34
2019-01-23T12:12:52.502Z,100020.36
2019-01-23T12:15:25.360Z,100023.02
2019-01-23T12:17:53.844Z,100019.88
2019-01-23T12:20:25.095Z,100018.59
2019-01-23T12:22:53.741Z,100025.17
2019-01-23T12:25:23.723Z,100036.05
2019-01-23T12:27:53.130Z,100022.95
2019-01-23T12:30:27.560Z,100028.64
2019-01-23T12:32:58.379Z,100026.05
2019-01-23T12:35:27.108Z,100032.61
2019-01-23T12:37:56.923Z,100019.03
2019-01-23T12:40:26.825Z,100026.41
2019-01-23T12:42:55.381Z,100026.86
2019-01-23T12:45:31.645Z,100028.19
2019-01-23T12:48:00.122Z,100026.89
2019-01-23T12:50:32.544Z,100030.80
2019-01-23T12:53:01.033Z,100034.20
2019-01-23T12:55:31.510Z,100027.66
2019-01-23T12:58:00.857Z,100029.77
2019-01-23T13:00:31.939Z,100034.63
2019-01-23T13:03:00.953Z,100032.82
2019-01-23T13:05:29.639Z,100033.64
2019-01-23T13:07:59.128Z,100032.38
2019-01-23T13:10:27.765Z,100038.44
2019-01-23T13:12:56.696Z,100037.18
2019-01-23T13:15:28.355Z,100034.58
2019-01-23T13:17:58.185Z,100041.05
2019-01-23T13:20:30.358Z,100036.07
2019-01-23T13:22:59.182Z,100031.28
2019-01-23T13:25:30.633Z,100046.10
2019-01-23T13:28:01.068Z,100045.20
2019-01-23T13:30:29.544Z,100034.77
2019-01-23T13:32:59.315Z,100033.55
2019-01-23T13:35:33.854Z,100040.92
2019-01-23T13:38:02.817Z,100046.10
2019-01-23T13:40:33.646Z,100043.83
2019-01-23T13:43:03.725Z,100042.92
2019-01-23T13:45:32.196Z,100050.80
2019-01-23T13:48:00.752Z,100049.83
2019-01-23T13:50:29.892Z,100046.91
2019-01-23T13:52:58.405Z,100043.95
2019-01-23T13:55:26.941Z,100043.86
2019-01-23T13:57:55.556Z,100055.13
2019-01-23T14:00:32.793Z,100056.41
2019-01-23T14:03:01.947Z,100060.22
2019-01-23T14:05:32.048Z,100065.89
2019-01-23T14:08:02.186Z,100059.24
2019-01-23T14:10:31.720Z,100056.37
2019-01-23T14:13:00.212Z,100065.38
2019-01-23T14:15:34.082Z,100066.09
2019-01-23T14:18:03.509Z,100068.39
2019-01-23T14:20:31.995Z,100074.96
2019-01-23T14:23:00.517Z,100074.33
2019-01-23T14:25:29.071Z,100096.14
2019-01-23T14:28:00.419Z,100083.88
2019-01-23T14:30:31.535Z,100085.70
2019-01-23T14:33:00.370Z,100084.78
2019-01-23T14:35:30.704Z,100096.59
2019-01-23T14:38:00.796Z,100090.41
2019-01-23T14:40:29.473Z,100082.17
2019-01-23T14:42:58.044Z,100089.92
2019-01-23T14:45:28.657Z,100100.94
2019-01-23T14:47:57.500Z,100100.85
2019-01-23T14:50:25.981Z,100100.89
2019-01-23T14:52:54.615Z,100100.38
2019-01-23T14:55:23.099Z,100106.91
2019-01-23T14:57:51.649Z,100106.08
2019-01-23T15:00:25.204Z,100102.12
2019-01-23T15:02:53.712Z,100110.04
2019-01-23T15:05:22.629Z,100115.17
2019-01-23T15:07:51.139Z,100113.44
2019-01-23T15:10:27.298Z,100108.65
2019-01-23T15:12:55.935Z,100113.00
2019-01-23T15:15:24.552Z,100116.13
2019-01-23T15:17:53.696Z,100114.83
2019-01-23T15:20:25.010Z,100129.68
2019-01-23T15:22:53.520Z,100122.23
2019-01-23T15:25:22.073Z,100123.06
2019-01-23T15:27:50.556Z,100125.67
2019-01-23T15:30:21.583Z,100129.59
2019-01-23T15:32:50.227Z,100132.20
2019-01-23T15:35:19.945Z,100131.28
2019-01-23T15:37:48.437Z,100134.77
2019-01-23T15:40:19.954Z,100134.38
2019-01-23T15:42:48.454Z,100137.88
2019-01-23T15:45:17.072Z,100139.66
2019-01-23T15:47:45.577Z,100140.62
2019-01-23T15:50:22.548Z,100146.58
2019-01-23T15:52:51.121Z,100144.01
2019-01-23T15:55:22.246Z,100150.59
2019-01-23T15:57:50.827Z,100153.69
2019-01-23T16:00:27.600Z,100150.20
2019-01-23T16:02:56.643Z,100159.73
2019-01-23T16:05:25.120Z,100159.25
2019-01-23T16:07:53.680Z,100154.98
2019-01-23T16:10:25.057Z,100158.55
2019-01-23T16:12:53.600Z,100160.70
2019-01-23T16:15:24.442Z,100162.87
2019-01-23T16:17:52.958Z,100165.01
2019-01-23T16:20:21.449Z,100167.22
2019-01-23T16:22:49.992Z,100172.89
2019-01-23T16:25:18.646Z,100171.16
2019-01-23T16:27:47.190Z,100175.98
2019-01-23T16:30:21.537Z,100176.02
2019-01-23T16:32:50.161Z,100173.89
2019-01-23T16:35:18.652Z,100181.65
2019-01-23T16:37:47.126Z,100178.16
2019-01-23T16:40:15.704Z,100181.27
2019-01-23T16:42:44.256Z,100185.66
2019-01-23T16:45:16.394Z,100193.06
2019-01-23T16:47:45.749Z,100187.27
2019-01-23T16:50:17.420Z,100201.20
2019-01-23T16:52:45.944Z,100201.25
2019-01-23T16:55:14.986Z,100203.38
2019-01-23T16:57:44.699Z,100192.05
2019-01-23T17:00:19.165Z,100196.89
2019-01-23T17:02:47.781Z,100195.93
2019-01-23T17:05:22.132Z,100209.44
2019-01-23T17:07:50.669Z,100203.28
2019-01-23T17:10:21.917Z,100205.12
2019-01-23T17:12:50.407Z,100209.57
2019-01-23T17:15:18.889Z,100201.59
2019-01-23T17:17:47.366Z,100210.75
2019-01-23T17:20:18.917Z,100218.14
2019-01-23T17:22:47.461Z,100203.28
2019-01-23T17:25:16.221Z,100211.61
2019-01-23T17:27:44.825Z,100210.30
2019-01-23T17:30:16.564Z,100211.61
2019-01-23T17:32:45.843Z,100213.44
2019-01-23T17:35:19.514Z,100216.06
2019-01-23T17:37:48.083Z,100217.36
2019-01-23T17:40:19.315Z,100219.55
2019-01-23T17:42:48.128Z,100216.79
2019-01-23T17:45:19.680Z,100234.69
2019-01-23T17:47:48.225Z,100221.62
2019-01-23T17:50:19.366Z,100225.11
2019-01-23T17:52:47.840Z,100229.12
2019-01-23T17:55:28.001Z,100234.45
2019-01-23T17:57:56.647Z,100238.28
2019-01-23T18:00:29.255Z,100229.12
2019-01-23T18:02:58.078Z,100232.08
2019-01-23T18:05:26.576Z,100232.91
2019-01-23T18:07:55.507Z,100233.00
2019-01-23T18:10:24.290Z,100228.11
2019-01-23T18:12:52.747Z,100237.73
2019-01-23T18:15:36.154Z,100230.34
2019-01-23T18:18:05.471Z,100231.26
2019-01-23T18:20:33.985Z,100235.03
2019-01-23T18:23:02.518Z,100239.48
2019-01-23T18:25:31.033Z,100243.06
2019-01-23T18:27:59.498Z,100240.08
2019-01-23T18:30:36.889Z,100238.81
2019-01-23T18:33:08.445Z,100249.75
2019-01-23T18:35:46.050Z,100251.97
2019-01-23T18:38:17.577Z,100264.56
2019-01-23T18:40:52.051Z,100256.63
2019-01-23T18:43:38.452Z,100259.23
2019-01-23T18:46:44.854Z,100266.63
2019-01-23T18:49:39.175Z,100265.72
2019-01-23T18:52:13.675Z,100270.13
2019-01-23T18:54:43.391Z,100274.05
2019-01-23T18:57:23.638Z,100267.95
2019-01-23T18:59:58.958Z,100294.96
2019-01-23T19:02:22.542Z,100287.13
2019-01-23T19:04:51.016Z,100298.88
2019-01-23T19:07:19.693Z,100290.16
2019-01-23T19:09:48.297Z,100290.12
2019-01-23T19:12:16.810Z,100305.86
2019-01-23T19:14:45.288Z,100297.63
2019-01-23T19:17:13.793Z,100301.98
2019-01-23T19:19:42.252Z,100305.47
2019-01-23T19:22:10.810Z,100315.39
2019-01-23T19:24:39.561Z,100309.34
2019-01-23T19:27:08.066Z,100311.13
2019-01-23T19:29:36.541Z,100320.82
2019-01-23T19:32:05.379Z,100315.98
2019-01-23T19:34:33.841Z,100321.64
2019-01-23T19:37:02.340Z,100326.83
2019-01-23T19:39:30.818Z,100316.84
2019-01-23T19:41:59.321Z,100319.47
2019-01-23T19:44:27.794Z,100326.97
2019-01-23T19:46:56.304Z,100315.55
2019-01-23T19:49:24.858Z,100334.33
2019-01-23T19:51:53.366Z,100330.84
2019-01-23T19:54:21.833Z,100336.94
2019-01-23T19:56:50.340Z,100329.55
2019-01-23T19:59:18.815Z,100338.27
2019-01-23T20:01:47.325Z,100343.53
2019-01-23T20:04:15.805Z,100345.29
2019-01-23T20:06:44.310Z,100350.08
2019-01-23T20:09:12.945Z,100346.20
2019-01-23T20:11:41.514Z,100358.45
2019-01-23T20:14:10.154Z,100355.45
2019-01-23T20:16:38.729Z,100353.72
2019-01-23T20:19:08.856Z,100351.10
2019-01-23T20:21:37.335Z,100356.00
2019-01-23T20:24:05.917Z,100348.63
2019-01-23T20:26:34.425Z,100357.35
2019-01-23T20:29:02.914Z,100352.13
2019-01-23T20:31:31.396Z,100368.74
2019-01-23T20:33:59.906Z,100372.76
2019-01-23T20:36:28.377Z,100367.09
2019-01-23T20:38:56.874Z,100364.48
2019-01-23T20:41:25.353Z,100351.48
2019-01-23T20:43:53.873Z,100357.59
2019-01-23T20:46:22.351Z,100364.62
2019-01-23T20:48:50.861Z,100362.05
2019-01-23T20:51:19.354Z,100360.73
2019-01-23T20:53:47.839Z,100365.54
2019-01-23T20:56:16.312Z,100365.58
2019-01-23T20:58:44.807Z,100355.12
2019-01-23T21:01:13.319Z,100364.80
2019-01-23T21:03:41.965Z,100369.60
2019-01-23T21:06:11.301Z,100372.70
2019-01-23T21:08:40.569Z,100372.27
2019-01-23T21:11:09.047Z,100362.70
2019-01-23T21:13:37.547Z,100372.79
2019-01-23T21:16:06.182Z,100370.17
2019-01-23T21:18:34.718Z,100369.77
2019-01-23T21:21:03.213Z,100380.73
2019-01-23T21:23:31.716Z,100379.89
2019-01-23T21:26:00.266Z,100372.47
2019-01-23T21:28:28.771Z,100382.11
2019-01-23T21:30:57.267Z,100377.31
2019-01-23T21:33:25.758Z,100379.10
2019-01-23T21:35:54.240Z,100377.83
2019-01-23T21:38:22.744Z,100382.20
2019-01-23T21:40:52.765Z,100381.80
2019-01-23T21:43:21.291Z,100378.74
2019-01-23T21:45:49.800Z,100387.04
2019-01-23T21:48:18.308Z,100378.78
2019-01-23T21:50:48.392Z,100386.67
2019-01-23T21:53:16.895Z,100391.05
2019-01-23T21:55:45.447Z,100387.55
2019-01-23T21:58:13.943Z,100388.90
2019-01-23T22:00:43.565Z,100392.87
2019-01-23T22:03:12.499Z,100399.85
2019-01-23T22:05:41.318Z,100389.41
2019-01-23T22:08:10.082Z,100393.78
2019-01-23T22:10:38.722Z,100391.62
2019-01-23T22:13:07.289Z,100400.36
2019-01-23T22:15:36.025Z,100391.66
2019-01-23T22:18:05.363Z,100395.16
2019-01-23T22:20:34.406Z,100396.91
2019-01-23T22:23:02.942Z,100397.81
2019-01-23T22:25:31.446Z,100403.48
2019-01-23T22:27:59.926Z,100404.44
2019-01-23T22:30:33.694Z,100407.92
2019-01-23T22:33:02.468Z,100414.01
2019-01-23T22:35:30.932Z,100416.63
2019-01-23T22:37:59.543Z,100421.03
2019-01-23T22:40:28.208Z,100419.72
2019-01-23T22:42:56.688Z,100419.72
2019-01-23T22:45:25.183Z,100419.32
2019-01-23T22:47:54.924Z,100412.77
2019-01-23T22:50:25.369Z,100420.66
2019-01-23T22:52:54.011Z,100423.28
2019-01-23T22:55:22.847Z,100421.94
2019-01-23T22:57:51.405Z,100422.84
2019-01-23T23:00:30.598Z,100420.70
2019-01-23T23:02:59.074Z,100421.57
2019-01-23T23:05:27.638Z,100423.32
2019-01-23T23:07:56.135Z,100433.80
2019-01-23T23:10:24.777Z,100430.31
2019-01-23T23:12:53.252Z,100428.59
2019-01-23T23:15:21.810Z,100430.34
2019-01-23T23:17:50.289Z,100427.72
2019-01-23T23:20:18.784Z,100437.33
2019-01-23T23:22:47.266Z,100433.44
2019-01-23T23:25:15.993Z,100435.18
2019-01-23T23:27:44.475Z,100442.17
2019-01-23T23:30:18.954Z,100441.30
2019-01-23T23:32:47.429Z,100446.11
2019-01-23T23:35:15.987Z,100439.62
2019-01-23T23:37:44.539Z,100445.30
2019-01-23T23:40:16.872Z,100442.20
2019-01-23T23:42:45.586Z,100447.05
2019-01-23T23:45:16.243Z,100452.73
2019-01-23T23:47:44.923Z,100445.30
2019-01-23T23:50:15.666Z,100447.92
2019-01-23T23:52:44.523Z,100441.83
2019-01-23T23:55:14.961Z,100444.45
2019-01-23T23:57:43.742Z,100462.34
